createdAt,value
2022-08-20T00:03:02.845Z,19.95
2022-08-20T00:08:07.909Z,19.98
2022-08-20T00:13:14.002Z,20.87
2022-08-20T00:18:21.893Z,20.40
2022-08-20T00:23:26.248Z,19.78
2022-08-20T00:28:28.728Z,19.48
2022-08-20T00:33:34.961Z,20.31
2022-08-20T00:38:39.952Z,19.76
2022-08-20T00:43:45.042Z,19.58
2022-08-20T00:48:50.586Z,19.63
2022-08-20T00:53:55.977Z,19.82
2022-08-20T00:58:58.684Z,19.55
2022-08-20T01:04:01.266Z,19.32
2022-08-20T01:09:06.143Z,19.23
2022-08-20T01:14:36.081Z,19.38
2022-08-20T01:19:42.744Z,20.22
2022-08-20T01:24:47.554Z,20.51
2022-08-20T01:29:52.634Z,20.64
2022-08-20T01:34:55.216Z,20.81
2022-08-20T01:39:59.287Z,21.05
2022-08-20T01:45:04.355Z,20.60
2022-08-20T01:50:13.393Z,20.40
2022-08-20T01:55:16.032Z,20.73
2022-08-20T02:00:21.926Z,20.20
2022-08-20T02:05:24.953Z,19.88
2022-08-20T02:10:33.292Z,19.57
2022-08-20T02:15:39.772Z,19.23
2022-08-20T02:20:46.555Z,19.23
2022-08-20T02:25:49.290Z,19.24
2022-08-20T02:30:55.486Z,20.02
2022-08-20T02:35:58.817Z,19.41
2022-08-20T02:41:02.058Z,19.43
2022-08-20T02:46:06.942Z,19.99
2022-08-20T02:51:10.110Z,19.98
2022-08-20T02:56:13.229Z,19.95
2022-08-20T03:01:18.917Z,20.31
2022-08-20T03:06:21.994Z,19.55
2022-08-20T03:11:24.589Z,19.32
2022-08-20T03:16:28.547Z,20.30
2022-08-20T03:21:30.922Z,20.69
2022-08-20T03:26:33.509Z,20.25
2022-08-20T03:31:37.588Z,19.41
2022-08-20T03:36:39.983Z,20.26
2022-08-20T03:41:42.498Z,20.33
2022-08-20T03:46:46.341Z,20.87
2022-08-20T03:51:57.781Z,20.96
2022-08-20T03:57:02.677Z,19.58
2022-08-20T04:02:07.763Z,20.11
2022-08-20T04:07:11.372Z,20.05
2022-08-20T04:12:14.902Z,20.23
2022-08-20T04:17:20.649Z,19.93
2022-08-20T04:22:25.111Z,20.61
2022-08-20T04:27:27.858Z,20.58
2022-08-20T04:32:31.870Z,19.99
2022-08-20T04:37:34.677Z,20.38
2022-08-20T04:42:38.048Z,19.96
2022-08-20T04:47:43.114Z,19.96
2022-08-20T04:52:46.705Z,19.87
2022-08-20T04:57:49.456Z,19.87
2022-08-20T05:02:53.229Z,19.91
2022-08-20T05:07:56.938Z,20.10
2022-08-20T05:12:59.500Z,20.44
2022-08-20T05:18:05.698Z,20.47
2022-08-20T05:23:10.219Z,20.60
2022-08-20T05:28:17.694Z,20.92
2022-08-20T05:33:23.498Z,20.74
2022-08-20T05:38:31.078Z,21.17
2022-08-20T05:43:34.027Z,20.66
2022-08-20T05:48:37.834Z,21.07
2022-08-20T05:53:41.602Z,21.40
2022-08-20T05:58:44.055Z,21.06
2022-08-20T06:04:06.008Z,20.56
2022-08-20T06:09:08.849Z,20.74
2022-08-20T06:14:11.382Z,20.92
2022-08-20T06:19:15.450Z,21.17
2022-08-20T06:24:27.623Z,21.36
2022-08-20T06:29:33.247Z,21.48
2022-08-20T06:34:37.219Z,21.49
2022-08-20T06:39:39.669Z,21.40
2022-08-20T06:44:42.155Z,21.59
2022-08-20T06:49:47.461Z,21.20
2022-08-20T06:54:50.081Z,21.28
2022-08-20T06:59:55.642Z,20.84
2022-08-20T07:04:59.605Z,21.29
2022-08-20T07:10:02.098Z,21.46
2022-08-20T07:15:05.033Z,21.72
2022-08-20T07:20:13.183Z,21.80
2022-08-20T07:25:19.400Z,21.71
2022-08-20T07:30:56.895Z,20.96
2022-08-20T07:36:04.504Z,22.00
2022-08-20T07:41:49.048Z,22.22
2022-08-20T07:47:30.782Z,22.32
2022-08-20T07:52:57.186Z,21.65
2022-08-20T07:58:19.141Z,22.17
2022-08-20T08:03:39.449Z,21.77
2022-08-20T08:09:11.947Z,21.75
2022-08-20T08:14:14.922Z,22.20
2022-08-20T08:19:19.713Z,22.52
2022-08-20T08:24:28.171Z,22.97
2022-08-20T08:29:31.074Z,22.93
2022-08-20T08:34:35.998Z,23.35
2022-08-20T08:39:40.052Z,23.22
2022-08-20T08:44:42.990Z,22.66
2022-08-20T08:49:47.453Z,22.43
2022-08-20T08:54:55.406Z,22.67
2022-08-20T09:00:04.848Z,22.20
2022-08-20T09:05:15.654Z,22.58
2022-08-20T09:10:23.279Z,22.89
2022-08-20T09:15:26.002Z,23.12
2022-08-20T09:20:28.838Z,23.37
2022-08-20T09:25:32.835Z,23.72
2022-08-20T09:30:35.350Z,23.43
2022-08-20T09:35:40.210Z,24.12
2022-08-20T09:40:44.505Z,24.42
2022-08-20T09:45:47.017Z,24.34
2022-08-20T09:50:50.862Z,24.58
2022-08-20T09:55:56.701Z,24.46
2022-08-20T10:01:00.326Z,24.26
2022-08-20T10:06:03.073Z,24.30
2022-08-20T10:11:07.125Z,24.72
2022-08-20T10:16:09.714Z,25.25
2022-08-20T10:21:13.251Z,25.10
2022-08-20T10:26:17.412Z,24.33
2022-08-20T10:31:19.937Z,24.75
2022-08-20T10:36:22.392Z,24.71
2022-08-20T10:41:26.230Z,25.84
2022-08-20T10:46:28.869Z,26.43
2022-08-20T10:51:32.602Z,26.59
2022-08-20T10:56:36.982Z,26.31
2022-08-20T11:01:39.691Z,26.25
2022-08-20T11:06:42.425Z,26.51
2022-08-20T11:11:46.216Z,25.84
2022-08-20T11:16:48.748Z,25.47
2022-08-20T11:21:51.249Z,25.69
2022-08-20T11:26:55.276Z,25.88
2022-08-20T11:31:57.772Z,25.99
2022-08-20T11:37:00.478Z,26.18
2022-08-20T11:42:04.594Z,26.38
2022-08-20T11:47:08.792Z,26.36
2022-08-20T11:52:11.307Z,26.04
2022-08-20T11:57:21.320Z,25.33
2022-08-20T12:02:23.954Z,25.28
2022-08-20T12:07:28.413Z,25.87
2022-08-20T12:12:32.331Z,26.00
2022-08-20T12:17:35.623Z,25.65
2022-08-20T12:22:38.254Z,25.35
2022-08-20T12:27:42.594Z,25.88
2022-08-20T12:32:45.669Z,25.84
2022-08-20T12:37:48.529Z,26.17
2022-08-20T12:42:55.593Z,26.63
2022-08-20T12:48:05.964Z,26.38
2022-08-20T12:53:09.307Z,26.10
2022-08-20T12:58:13.674Z,25.90
2022-08-20T13:03:16.473Z,26.08
2022-08-20T13:08:19.449Z,26.47
2022-08-20T13:13:23.665Z,26.74
2022-08-20T13:18:26.151Z,26.64
2022-08-20T13:23:28.717Z,26.71
2022-08-20T13:28:32.914Z,26.58
2022-08-20T13:33:35.443Z,26.50
2022-08-20T13:38:37.938Z,26.31
2022-08-20T13:43:41.762Z,26.71
2022-08-20T13:48:44.558Z,26.21
2022-08-20T13:53:47.054Z,26.31
2022-08-20T13:58:51.235Z,26.49
2022-08-20T14:03:55.651Z,26.31
2022-08-20T14:08:58.766Z,26.01
2022-08-20T14:14:02.845Z,25.90
2022-08-20T14:19:05.536Z,26.05
2022-08-20T14:24:08.563Z,25.62
2022-08-20T14:29:12.385Z,25.64
2022-08-20T14:34:15.142Z,25.45
2022-08-20T14:39:20.412Z,25.49
2022-08-20T14:44:24.514Z,25.51
2022-08-20T14:49:27.036Z,25.70
2022-08-20T14:54:29.535Z,25.70
2022-08-20T14:59:34.010Z,24.85
2022-08-20T15:04:37.623Z,24.07
2022-08-20T15:09:40.172Z,24.55
2022-08-20T15:14:44.036Z,25.15
2022-08-20T15:19:50.995Z,25.23
2022-08-20T15:24:55.611Z,25.29
2022-08-20T15:30:01.826Z,25.44
2022-08-20T15:35:05.859Z,25.72
2022-08-20T15:40:10.251Z,26.06
2022-08-20T15:45:22.053Z,26.12
2022-08-20T15:50:42.011Z,26.45
2022-08-20T15:55:54.765Z,26.44
2022-08-20T16:01:23.747Z,26.51
2022-08-20T16:06:31.450Z,26.63
2022-08-20T16:11:45.591Z,26.68
2022-08-20T16:16:56.720Z,26.92
2022-08-20T16:22:06.776Z,26.72
2022-08-20T16:27:15.321Z,26.50
2022-08-20T16:32:33.027Z,26.21
2022-08-20T16:37:42.303Z,26.59
2022-08-20T16:42:48.034Z,24.78
2022-08-20T16:47:53.620Z,24.28
2022-08-20T16:52:56.384Z,24.04
2022-08-20T16:57:59.469Z,24.31
2022-08-20T17:03:06.464Z,24.07
2022-08-20T17:08:09.541Z,23.88
2022-08-20T17:13:23.851Z,24.18
2022-08-20T17:18:35.163Z,23.79
2022-08-20T17:23:55.232Z,23.31
2022-08-20T17:29:01.604Z,23.16
2022-08-20T17:34:06.029Z,23.24
2022-08-20T17:39:19.100Z,23.33
2022-08-20T17:44:24.278Z,23.97
2022-08-20T17:49:35.260Z,24.00
2022-08-20T17:54:42.167Z,24.08
2022-08-20T18:00:01.940Z,24.17
2022-08-20T18:05:20.431Z,24.20
2022-08-20T18:10:27.081Z,23.61
2022-08-20T18:15:32.744Z,24.08
2022-08-20T18:21:13.318Z,24.24
2022-08-20T18:26:20.693Z,23.89
2022-08-20T18:31:30.031Z,23.90
2022-08-20T18:36:34.414Z,23.15
2022-08-20T18:41:39.818Z,23.09
2022-08-20T18:46:54.048Z,23.42
2022-08-20T18:51:59.612Z,23.46
2022-08-20T18:57:07.349Z,23.46
2022-08-20T19:02:23.593Z,23.35
2022-08-20T19:07:47.973Z,23.29
2022-08-20T19:13:16.293Z,22.87
2022-08-20T19:18:25.648Z,23.27
2022-08-20T19:23:34.138Z,23.08
2022-08-20T19:28:44.578Z,23.02
2022-08-20T19:33:47.740Z,23.35
2022-08-20T19:38:57.712Z,23.40
2022-08-20T19:44:01.812Z,23.12
2022-08-20T19:49:19.207Z,22.31
2022-08-20T19:54:25.426Z,22.22
2022-08-20T19:59:28.356Z,22.79
2022-08-20T20:04:39.989Z,23.17
2022-08-20T20:09:46.206Z,23.08
2022-08-20T20:14:52.187Z,23.03
2022-08-20T20:19:59.199Z,21.81
2022-08-20T20:25:07.752Z,20.87
2022-08-20T20:30:13.781Z,21.97
2022-08-20T20:35:27.174Z,21.84
2022-08-20T20:40:36.123Z,22.02
2022-08-20T20:45:44.681Z,22.51
2022-08-20T20:50:48.466Z,21.86
2022-08-20T20:55:57.345Z,20.68
2022-08-20T21:00:59.880Z,21.48
2022-08-20T21:06:04.054Z,21.87
2022-08-20T21:11:07.984Z,22.03
2022-08-20T21:16:13.229Z,22.35
2022-08-20T21:21:16.036Z,21.83
2022-08-20T21:26:19.989Z,21.32
2022-08-20T21:31:22.658Z,22.01
2022-08-20T21:36:25.140Z,22.20
2022-08-20T21:41:29.960Z,21.00
2022-08-20T21:46:32.809Z,21.47
2022-08-20T21:51:36.048Z,21.89
2022-08-20T21:56:40.219Z,21.35
2022-08-20T22:01:43.266Z,21.41
2022-08-20T22:06:47.209Z,20.70
2022-08-20T22:11:54.574Z,20.25
2022-08-20T22:16:58.370Z,21.29
2022-08-20T22:22:01.288Z,20.85
2022-08-20T22:27:06.118Z,20.95
2022-08-20T22:32:08.698Z,21.21
2022-08-20T22:37:14.071Z,21.52
2022-08-20T22:42:18.297Z,21.26
2022-08-20T22:47:25.255Z,21.61
2022-08-20T22:52:27.966Z,21.54
2022-08-20T22:57:31.910Z,21.24
2022-08-20T23:02:37.144Z,20.64
2022-08-20T23:07:39.661Z,20.79
2022-08-20T23:12:43.530Z,19.75
2022-08-20T23:17:46.667Z,19.44
2022-08-20T23:22:49.137Z,19.17
2022-08-20T23:27:55.335Z,19.84
2022-08-20T23:32:58.102Z,20.55
2022-08-20T23:38:04.561Z,19.86
2022-08-20T23:43:08.446Z,20.11
2022-08-20T23:48:10.966Z,19.52
2022-08-20T23:53:13.502Z,19.27
2022-08-20T23:58:17.445Z,19.36
